createdAt,value
2022-12-23T00:01:52.653Z,99050.06
2022-12-23T00:06:55.534Z,99049.41
2022-12-23T00:12:15.921Z,99042.34
2022-12-23T00:17:23.493Z,99043.97
2022-12-23T00:22:47.059Z,99030.09
2022-12-23T00:28:01.293Z,99022.22
2022-12-23T00:33:05.727Z,99016.69
2022-12-23T00:38:08.545Z,99013.41
2022-12-23T00:43:11.289Z,99008.81
2022-12-23T00:48:32.968Z,99005.84
2022-12-23T00:53:35.782Z,98999.78
2022-12-23T00:58:38.525Z,99004.69
2022-12-23T01:04:05.511Z,98994.19
2022-12-23T01:09:08.299Z,99003.50
2022-12-23T01:14:11.540Z,98990.59
2022-12-23T01:19:15.769Z,98994.19
2022-12-23T01:24:18.699Z,98993.84
2022-12-23T01:29:21.424Z,98997.94
2022-12-23T01:34:29.718Z,98989.72
2022-12-23T01:39:35.410Z,98991.69
2022-12-23T01:44:50.208Z,98983.69
2022-12-23T01:49:56.890Z,98973.66
2022-12-23T01:54:59.686Z,98963.53
2022-12-23T02:00:19.843Z,98968.41
2022-12-23T02:05:24.774Z,98965.25
2022-12-23T02:10:32.128Z,98968.72
2022-12-23T02:15:57.145Z,98963.63
2022-12-23T02:21:13.707Z,98957.41
2022-12-23T02:26:34.027Z,98950.00
2022-12-23T02:31:44.086Z,98955.06
2022-12-23T02:36:52.759Z,98953.25
2022-12-23T02:41:58.597Z,98952.91
2022-12-23T02:47:05.443Z,98951.72
2022-12-23T02:52:12.932Z,98953.75
2022-12-23T02:57:18.159Z,98947.47
2022-12-23T03:02:22.306Z,98948.31
2022-12-23T03:07:30.758Z,98957.16
2022-12-23T03:12:41.665Z,98947.31
2022-12-23T03:17:58.857Z,98961.88
2022-12-23T03:23:07.158Z,98959.59
2022-12-23T03:28:12.932Z,98958.59
2022-12-23T03:33:20.250Z,98965.31
2022-12-23T03:38:23.225Z,98969.91
2022-12-23T03:43:27.105Z,98963.84
2022-12-23T03:48:34.675Z,98969.56
2022-12-23T03:53:39.985Z,98969.19
2022-12-23T03:58:46.027Z,98977.06
2022-12-23T04:03:56.247Z,98981.69
2022-12-23T04:08:59.464Z,98972.84
2022-12-23T04:14:02.259Z,98972.47
2022-12-23T04:19:06.313Z,98973.09
2022-12-23T04:24:09.289Z,98972.09
2022-12-23T04:29:12.009Z,98965.22
2022-12-23T04:34:16.309Z,98965.06
2022-12-23T04:39:19.065Z,98968.69
2022-12-23T04:44:21.871Z,98982.13
2022-12-23T04:49:25.946Z,98978.22
2022-12-23T04:54:28.947Z,98978.13
2022-12-23T04:59:32.407Z,98979.94
2022-12-23T05:04:36.904Z,98974.31
2022-12-23T05:09:39.649Z,98974.81
2022-12-23T05:14:42.389Z,98973.19
2022-12-23T05:19:46.491Z,98986.19
2022-12-23T05:24:49.182Z,98981.94
2022-12-23T05:29:51.882Z,98999.09
2022-12-23T05:34:56.236Z,98996.47
2022-12-23T05:39:59.177Z,98998.16
2022-12-23T05:45:02.141Z,98998.78
2022-12-23T05:50:07.331Z,98999.63
2022-12-23T05:55:10.572Z,99009.66
2022-12-23T06:00:14.499Z,99016.34
2022-12-23T06:05:19.199Z,99014.19
2022-12-23T06:10:22.015Z,99010.22
2022-12-23T06:15:24.798Z,99015.28
2022-12-23T06:20:29.083Z,99027.75
2022-12-23T06:25:31.823Z,99020.53
2022-12-23T06:30:34.535Z,99033.13
2022-12-23T06:35:38.688Z,99029.13
2022-12-23T06:40:41.519Z,99036.34
2022-12-23T06:45:47.693Z,99037.53
2022-12-23T06:50:51.853Z,99052.09
2022-12-23T06:56:00.632Z,99053.06
2022-12-23T07:01:03.481Z,99067.81
2022-12-23T07:06:08.369Z,99067.81
2022-12-23T07:11:11.205Z,99069.81
2022-12-23T07:16:14.203Z,99064.59
2022-12-23T07:21:28.308Z,99054.56
2022-12-23T07:26:33.188Z,99060.59
2022-12-23T07:31:40.591Z,99074.34
2022-12-23T07:36:45.146Z,99090.63
2022-12-23T07:41:47.885Z,99098.00
2022-12-23T07:46:50.741Z,99101.44
2022-12-23T07:51:54.861Z,99098.28
2022-12-23T07:56:58.157Z,99097.78
2022-12-23T08:02:01.092Z,99099.88
2022-12-23T08:07:05.260Z,99107.75
2022-12-23T08:12:08.391Z,99107.22
2022-12-23T08:17:11.196Z,99110.84
2022-12-23T08:22:15.641Z,99118.59
2022-12-23T08:27:18.400Z,99117.59
2022-12-23T08:32:21.239Z,99123.25
2022-12-23T08:37:25.772Z,99116.66
2022-12-23T08:42:28.533Z,99128.63
2022-12-23T08:47:31.358Z,99134.84
2022-12-23T08:52:35.471Z,99128.63
2022-12-23T08:57:39.071Z,99146.78
2022-12-23T09:02:42.079Z,99145.66
2022-12-23T09:07:46.288Z,99155.31
2022-12-23T09:12:49.069Z,99154.13
2022-12-23T09:17:51.752Z,99157.59
2022-12-23T09:22:55.795Z,99164.28
2022-12-23T09:27:58.524Z,99161.13
2022-12-23T09:33:01.245Z,99168.19
2022-12-23T09:38:05.531Z,99164.06
2022-12-23T09:43:16.479Z,99178.13
2022-12-23T09:48:21.752Z,99188.75
2022-12-23T09:53:28.475Z,99188.22
2022-12-23T09:58:34.333Z,99199.03
2022-12-23T10:03:56.177Z,99203.75
2022-12-23T10:09:02.768Z,99212.72
2022-12-23T10:14:11.974Z,99208.47
2022-12-23T10:19:18.941Z,99201.13
2022-12-23T10:24:24.260Z,99195.88
2022-12-23T10:29:28.588Z,99184.38
2022-12-23T10:34:39.945Z,99197.66
2022-12-23T10:39:48.026Z,99200.28
2022-12-23T10:45:20.179Z,99197.16
2022-12-23T10:50:45.982Z,99202.31
2022-12-23T10:55:51.219Z,99216.41
2022-12-23T11:00:56.142Z,99195.66
2022-12-23T11:05:59.561Z,99200.75
2022-12-23T11:11:03.654Z,99208.09
2022-12-23T11:16:14.609Z,99210.16
2022-12-23T11:21:17.393Z,99210.66
2022-12-23T11:26:21.644Z,99215.25
2022-12-23T11:31:27.958Z,99211.00
2022-12-23T11:36:32.490Z,99204.75
2022-12-23T11:41:38.966Z,99204.00
2022-12-23T11:46:41.692Z,99192.63
2022-12-23T11:51:44.855Z,99175.97
2022-12-23T11:56:52.366Z,99188.75
2022-12-23T12:01:55.942Z,99175.41
2022-12-23T12:07:00.561Z,99165.72
2022-12-23T12:12:06.851Z,99169.81
2022-12-23T12:17:15.570Z,99168.81
2022-12-23T12:22:26.021Z,99170.81
2022-12-23T12:27:35.735Z,99166.91
2022-12-23T12:32:44.263Z,99171.50
2022-12-23T12:37:49.813Z,99162.19
2022-12-23T12:42:59.879Z,99162.84
2022-12-23T12:48:23.520Z,99156.00
2022-12-23T12:53:27.385Z,99157.75
2022-12-23T12:58:31.589Z,99148.03
2022-12-23T13:04:01.845Z,99137.72
2022-12-23T13:09:09.636Z,99132.63
2022-12-23T13:14:24.363Z,99126.03
2022-12-23T13:19:33.837Z,99136.88
2022-12-23T13:24:55.018Z,99136.06
2022-12-23T13:30:04.766Z,99140.84
2022-12-23T13:35:19.880Z,99133.78
2022-12-23T13:40:32.747Z,99119.84
2022-12-23T13:45:37.780Z,99112.78
2022-12-23T13:50:45.350Z,99106.91
2022-12-23T13:55:56.853Z,99098.41
2022-12-23T14:01:22.394Z,99104.00
2022-12-23T14:06:44.056Z,99111.03
2022-12-23T14:11:47.110Z,99100.09
2022-12-23T14:17:02.269Z,99084.69
2022-12-23T14:22:15.026Z,99089.59
2022-12-23T14:27:46.817Z,99087.63
2022-12-23T14:32:52.710Z,99099.75
2022-12-23T14:38:21.091Z,99094.78
2022-12-23T14:43:33.406Z,99086.91
2022-12-23T14:49:38.177Z,99091.78
2022-12-23T14:54:39.474Z,99085.44
2022-12-23T14:59:49.302Z,99073.41
2022-12-23T15:04:56.480Z,99078.84
2022-12-23T15:10:01.713Z,99064.09
2022-12-23T15:15:17.290Z,99075.13
2022-12-23T15:20:24.590Z,99072.84
2022-12-23T15:25:30.120Z,99068.16
2022-12-23T15:30:35.652Z,99068.56
2022-12-23T15:35:40.729Z,99084.66
2022-12-23T15:40:44.879Z,99079.41
2022-12-23T15:45:47.850Z,99077.44
2022-12-23T15:50:52.904Z,99078.88
2022-12-23T15:55:55.895Z,99080.94
2022-12-23T16:00:59.479Z,99084.34
2022-12-23T16:06:12.295Z,99077.78
2022-12-23T16:11:17.076Z,99071.06
2022-12-23T16:16:33.441Z,99067.88
2022-12-23T16:21:37.966Z,99060.88
2022-12-23T16:26:42.619Z,99065.03
2022-12-23T16:31:52.020Z,99052.66
2022-12-23T16:36:59.998Z,99050.78
2022-12-23T16:42:02.855Z,99050.06
2022-12-23T16:47:08.242Z,99036.94
2022-12-23T16:52:14.909Z,99011.19
2022-12-23T16:57:17.644Z,99001.50
2022-12-23T17:02:22.541Z,99000.50
2022-12-23T17:07:27.965Z,98988.28
2022-12-23T17:12:30.806Z,98992.34
2022-12-23T17:17:34.384Z,98979.41
2022-12-23T17:22:38.932Z,98979.41
2022-12-23T17:27:41.788Z,98958.25
2022-12-23T17:32:46.411Z,98970.91
2022-12-23T17:37:50.627Z,98955.16
2022-12-23T17:42:53.397Z,98951.47
2022-12-23T17:47:56.098Z,98965.56
2022-12-23T17:53:00.211Z,98957.50
2022-12-23T17:58:03.043Z,98954.88
2022-12-23T18:03:06.850Z,98963.94
2022-12-23T18:08:10.954Z,98959.97
2022-12-23T18:13:16.418Z,98954.88
2022-12-23T18:18:27.264Z,98959.69
2022-12-23T18:23:34.125Z,98947.41
2022-12-23T18:28:37.052Z,98933.09
2022-12-23T18:33:39.767Z,98916.72
2022-12-23T18:38:43.859Z,98895.28
2022-12-23T18:43:47.214Z,98878.91
2022-12-23T18:48:49.944Z,98874.22
2022-12-23T18:53:54.108Z,98844.75
2022-12-23T18:58:56.851Z,98837.59
2022-12-23T19:03:59.624Z,98821.31
2022-12-23T19:09:03.691Z,98807.03
2022-12-23T19:14:06.652Z,98792.47
2022-12-23T19:19:10.284Z,98782.16
2022-12-23T19:24:14.415Z,98782.78
2022-12-23T19:29:17.353Z,98783.44
2022-12-23T19:34:20.239Z,98776.38
2022-12-23T19:39:26.856Z,98783.59
2022-12-23T19:44:29.772Z,98799.16
2022-12-23T19:49:34.087Z,98810.44
2022-12-23T19:54:38.486Z,98813.44
2022-12-23T19:59:41.386Z,98783.06
2022-12-23T20:04:44.643Z,98796.53
2022-12-23T20:09:48.831Z,98802.50
2022-12-23T20:14:51.551Z,98743.72
2022-12-23T20:19:54.401Z,98777.81
2022-12-23T20:24:59.372Z,98772.31
2022-12-23T20:30:02.582Z,98791.06
2022-12-23T20:35:06.149Z,98785.91
2022-12-23T20:40:12.790Z,98789.22
2022-12-23T20:45:16.231Z,98790.47
2022-12-23T20:50:19.127Z,98791.31
2022-12-23T20:55:23.291Z,98788.13
2022-12-23T21:00:28.611Z,98788.94
2022-12-23T21:05:31.401Z,98794.81
2022-12-23T21:10:36.115Z,98792.38
2022-12-23T21:15:39.024Z,98799.69
2022-12-23T21:20:42.102Z,98791.56
2022-12-23T21:25:46.203Z,98792.94
2022-12-23T21:30:49.079Z,98793.44
2022-12-23T21:35:51.834Z,98798.13
2022-12-23T21:41:01.713Z,98790.91
2022-12-23T21:46:06.435Z,98788.63
2022-12-23T21:51:13.498Z,98793.63
2022-12-23T21:56:19.941Z,98794.63
2022-12-23T22:01:22.748Z,98814.16
2022-12-23T22:06:27.422Z,98822.56
2022-12-23T22:11:33.355Z,98826.94
2022-12-23T22:16:37.030Z,98831.19
2022-12-23T22:21:40.240Z,98846.63
2022-12-23T22:26:44.437Z,98833.06
2022-12-23T22:31:49.094Z,98847.63
2022-12-23T22:36:52.207Z,98855.75
2022-12-23T22:41:56.419Z,98855.75
2022-12-23T22:46:59.192Z,98854.13
2022-12-23T22:52:02.015Z,98862.00
2022-12-23T22:57:06.657Z,98876.38
2022-12-23T23:02:09.373Z,98889.31
2022-12-23T23:07:12.223Z,98885.41
2022-12-23T23:12:16.613Z,98915.50
2022-12-23T23:17:20.182Z,98921.28
2022-12-23T23:22:24.631Z,98914.94
2022-12-23T23:27:28.980Z,98910.56
2022-12-23T23:32:31.856Z,98922.03
2022-12-23T23:37:34.823Z,98934.06
2022-12-23T23:42:39.306Z,98928.41
2022-12-23T23:47:42.398Z,98935.81
2022-12-23T23:52:45.300Z,98934.63
2022-12-23T23:57:49.369Z,98943.53
